createdAt,value
2018-07-05T00:01:38.907Z,4.07
2018-07-05T00:04:12.599Z,4.27
2018-07-05T00:06:52.120Z,4.30
2018-07-05T00:09:31.732Z,3.90
2018-07-05T00:12:11.559Z,3.80
2018-07-05T00:14:51.047Z,4.00
2018-07-05T00:17:30.650Z,3.87
2018-07-05T00:20:10.308Z,4.20
2018-07-05T00:22:49.900Z,4.20
2018-07-05T00:25:29.542Z,4.60
2018-07-05T00:28:09.042Z,4.07
2018-07-05T00:30:48.612Z,4.07
2018-07-05T00:33:28.142Z,3.83
2018-07-05T00:36:07.743Z,3.70
2018-07-05T00:38:47.365Z,4.10
2018-07-05T00:41:27.092Z,4.00
2018-07-05T00:44:06.604Z,4.23
2018-07-05T00:46:46.114Z,4.17
2018-07-05T00:49:25.747Z,4.27
2018-07-05T00:52:05.522Z,3.97
2018-07-05T00:54:45.111Z,4.00
2018-07-05T00:57:24.650Z,4.00
2018-07-05T01:00:04.171Z,4.43
2018-07-05T01:02:43.688Z,4.07
2018-07-05T01:05:23.211Z,4.20
2018-07-05T01:08:02.912Z,4.30
2018-07-05T01:10:42.377Z,4.10
2018-07-05T01:13:21.895Z,4.17
2018-07-05T01:16:01.386Z,4.63
2018-07-05T01:18:40.874Z,4.30
2018-07-05T01:21:20.493Z,4.80
2018-07-05T01:24:00.040Z,4.20
2018-07-05T01:26:39.709Z,4.10
2018-07-05T01:29:19.301Z,4.73
2018-07-05T01:31:58.817Z,4.03
2018-07-05T01:34:38.212Z,4.40
2018-07-05T01:37:17.681Z,4.23
2018-07-05T01:39:57.176Z,4.90
2018-07-05T01:42:36.646Z,5.47
2018-07-05T01:45:16.197Z,5.20
2018-07-05T01:47:55.932Z,5.63
2018-07-05T01:50:35.456Z,5.43
2018-07-05T01:53:15.012Z,5.53
2018-07-05T01:55:54.751Z,4.47
2018-07-05T01:58:34.418Z,4.50
2018-07-05T02:01:14.072Z,4.70
2018-07-05T02:03:53.583Z,4.23
2018-07-05T02:06:33.105Z,4.30
2018-07-05T02:09:12.738Z,4.50
2018-07-05T02:11:52.270Z,4.53
2018-07-05T02:14:31.836Z,5.30
2018-07-05T02:17:11.411Z,4.37
2018-07-05T02:19:45.130Z,4.60
2018-07-05T02:22:24.607Z,4.30
2018-07-05T02:25:04.033Z,4.60
2018-07-05T02:27:44.505Z,4.40
2018-07-05T02:30:24.052Z,5.00
2018-07-05T02:33:03.432Z,4.37
2018-07-05T02:35:42.950Z,4.83
2018-07-05T02:38:22.503Z,4.70
2018-07-05T02:41:02.413Z,4.57
2018-07-05T02:43:42.139Z,4.47
2018-07-05T02:46:21.671Z,4.30
2018-07-05T02:49:01.252Z,4.53
2018-07-05T02:51:41.020Z,4.33
2018-07-05T02:54:20.615Z,4.47
2018-07-05T02:57:00.216Z,4.90
2018-07-05T02:59:39.894Z,4.17
2018-07-05T03:02:19.487Z,4.83
2018-07-05T03:04:59.108Z,4.30
2018-07-05T03:07:32.621Z,4.03
2018-07-05T03:10:12.138Z,4.40
2018-07-05T03:12:51.675Z,4.03
2018-07-05T03:15:33.488Z,4.40
2018-07-05T03:18:13.168Z,4.60
2018-07-05T03:20:52.870Z,4.30
2018-07-05T03:23:32.533Z,3.90
2018-07-05T03:26:12.243Z,4.93
2018-07-05T03:28:52.771Z,4.40
2018-07-05T03:31:33.502Z,4.33
2018-07-05T03:34:12.944Z,4.17
2018-07-05T03:36:53.539Z,4.33
2018-07-05T03:39:33.229Z,4.67
2018-07-05T03:42:12.824Z,4.43
2018-07-05T03:44:52.532Z,4.33
2018-07-05T03:47:32.105Z,4.50
2018-07-05T03:50:11.714Z,5.00
2018-07-05T03:52:51.287Z,5.17
2018-07-05T03:55:30.951Z,5.73
2018-07-05T03:58:10.505Z,6.03
2018-07-05T04:00:49.966Z,7.90
2018-07-05T04:03:29.371Z,8.17
2018-07-05T04:06:10.063Z,8.17
2018-07-05T04:08:49.671Z,8.50
2018-07-05T04:11:29.231Z,5.13
2018-07-05T04:14:08.750Z,6.77
2018-07-05T04:16:48.361Z,6.40
2018-07-05T04:19:28.042Z,7.03
2018-07-05T04:22:07.634Z,7.07
2018-07-05T04:24:47.414Z,7.03
2018-07-05T04:27:27.084Z,6.53
2018-07-05T04:30:06.706Z,5.63
2018-07-05T04:32:46.152Z,5.80
2018-07-05T04:35:19.586Z,5.50
2018-07-05T04:37:59.116Z,5.13
2018-07-05T04:40:38.779Z,5.47
2018-07-05T04:43:18.643Z,5.10
2018-07-05T04:45:58.063Z,4.40
2018-07-05T04:48:37.513Z,5.10
2018-07-05T04:51:17.050Z,5.47
2018-07-05T04:53:56.715Z,5.30
2018-07-05T04:56:36.344Z,5.10
2018-07-05T04:59:16.007Z,5.17
2018-07-05T05:01:55.623Z,5.23
2018-07-05T05:04:35.300Z,5.50
2018-07-05T05:07:08.942Z,4.57
2018-07-05T05:09:48.592Z,5.20
2018-07-05T05:12:28.157Z,4.80
2018-07-05T05:15:08.115Z,5.07
2018-07-05T05:17:47.875Z,4.50
2018-07-05T05:20:21.484Z,4.70
2018-07-05T05:22:55.063Z,4.63
2018-07-05T05:25:34.670Z,4.53
2018-07-05T05:28:14.249Z,4.03
2018-07-05T05:30:47.851Z,5.20
2018-07-05T05:33:27.508Z,4.80
2018-07-05T05:36:06.972Z,5.27
2018-07-05T05:38:46.433Z,5.27
2018-07-05T05:41:25.938Z,4.30
2018-07-05T05:44:05.630Z,4.80
2018-07-05T05:46:45.153Z,5.00
2018-07-05T05:49:24.631Z,4.83
2018-07-05T05:52:04.162Z,5.10
2018-07-05T05:54:43.675Z,4.80
2018-07-05T05:57:23.341Z,4.50
2018-07-05T06:00:02.770Z,5.03
2018-07-05T06:02:42.280Z,4.83
2018-07-05T06:05:22.025Z,5.03
2018-07-05T06:08:01.603Z,4.10
2018-07-05T06:10:41.032Z,4.43
2018-07-05T06:13:20.597Z,4.60
2018-07-05T06:16:00.316Z,4.87
2018-07-05T06:18:39.752Z,4.53
2018-07-05T06:21:19.348Z,5.17
2018-07-05T06:23:58.890Z,4.40
2018-07-05T06:26:38.516Z,4.67
2018-07-05T06:29:17.920Z,4.73
2018-07-05T06:31:51.540Z,3.70
2018-07-05T06:34:31.127Z,4.47
2018-07-05T06:37:10.575Z,3.97
2018-07-05T06:39:50.256Z,4.43
2018-07-05T06:42:29.857Z,4.30
2018-07-05T06:45:09.363Z,3.77
2018-07-05T06:47:48.902Z,7.03
2018-07-05T06:50:28.338Z,4.10
2018-07-05T06:53:08.013Z,3.87
2018-07-05T06:55:47.675Z,4.80
2018-07-05T06:58:21.284Z,3.70
2018-07-05T07:00:54.881Z,3.97
2018-07-05T07:03:28.533Z,3.70
2018-07-05T07:06:08.115Z,4.03
2018-07-05T07:08:47.547Z,3.83
2018-07-05T07:11:27.256Z,3.00
2018-07-05T07:14:06.735Z,3.40
2018-07-05T07:16:46.263Z,3.50
2018-07-05T07:19:25.723Z,3.50
2018-07-05T07:22:05.429Z,3.80
2018-07-05T07:24:45.033Z,3.12
2018-07-05T07:27:24.467Z,3.10
2018-07-05T07:30:04.076Z,3.00
2018-07-05T07:32:37.559Z,3.35
2018-07-05T07:35:17.073Z,2.87
2018-07-05T07:37:56.545Z,2.90
2018-07-05T07:40:36.411Z,2.60
2018-07-05T07:43:03.721Z,2.70
2018-07-05T07:45:31.071Z,2.20
2018-07-05T07:47:58.277Z,2.65
2018-07-05T07:50:25.541Z,4.45
2018-07-05T07:52:52.815Z,2.62
2018-07-05T07:55:20.130Z,2.40
2018-07-05T07:57:47.481Z,2.20
2018-07-05T08:00:14.816Z,2.77
2018-07-05T08:02:42.174Z,2.45
2018-07-05T08:05:09.459Z,2.33
2018-07-05T08:07:36.828Z,2.95
2018-07-05T08:10:04.099Z,2.40
2018-07-05T08:12:31.475Z,2.77
2018-07-05T08:14:58.772Z,2.45
2018-07-05T08:17:26.112Z,2.83
2018-07-05T08:19:53.409Z,2.60
2018-07-05T08:22:20.685Z,2.50
2018-07-05T08:24:48.008Z,2.70
2018-07-05T08:27:15.265Z,2.70
2018-07-05T08:29:42.573Z,2.80
2018-07-05T08:32:09.839Z,2.60
2018-07-05T08:34:37.120Z,2.90
2018-07-05T08:37:04.390Z,2.65
2018-07-05T08:39:31.755Z,2.60
2018-07-05T08:41:59.023Z,2.80
2018-07-05T08:44:26.309Z,2.80
2018-07-05T08:46:53.586Z,2.50
2018-07-05T08:49:20.871Z,2.72
2018-07-05T08:51:48.151Z,3.00
2018-07-05T08:54:15.474Z,2.62
2018-07-05T08:56:42.775Z,2.80
2018-07-05T08:59:10.068Z,3.20
2018-07-05T09:01:37.348Z,2.60
2018-07-05T09:04:04.624Z,2.40
2018-07-05T09:06:31.876Z,2.85
2018-07-05T09:08:59.175Z,2.70
2018-07-05T09:11:26.711Z,2.58
2018-07-05T09:13:54.000Z,2.80
2018-07-05T09:16:21.262Z,2.70
2018-07-05T09:18:48.556Z,2.95
2018-07-05T09:21:15.819Z,2.90
2018-07-05T09:23:43.095Z,2.70
2018-07-05T09:26:10.408Z,2.35
2018-07-05T09:28:37.687Z,2.98
2018-07-05T09:31:04.990Z,2.55
2018-07-05T09:33:32.329Z,2.40
2018-07-05T09:36:00.163Z,2.50
2018-07-05T09:38:27.430Z,2.80
2018-07-05T09:40:54.714Z,2.67
2018-07-05T09:43:21.989Z,2.62
2018-07-05T09:45:49.263Z,2.75
2018-07-05T09:48:16.574Z,2.77
2018-07-05T09:50:44.000Z,2.17
2018-07-05T09:53:11.312Z,2.65
2018-07-05T09:55:38.614Z,1.92
2018-07-05T09:58:05.929Z,2.37
2018-07-05T10:00:38.730Z,2.47
2018-07-05T10:03:06.088Z,2.42
2018-07-05T10:05:33.382Z,2.75
2018-07-05T10:08:01.969Z,2.37
2018-07-05T10:10:29.310Z,2.47
2018-07-05T10:12:56.626Z,3.85
2018-07-05T10:15:23.947Z,2.58
2018-07-05T10:17:51.209Z,3.00
2018-07-05T10:20:18.522Z,2.80
2018-07-05T10:22:47.589Z,2.62
2018-07-05T10:25:14.897Z,2.60
2018-07-05T10:27:42.163Z,2.55
2018-07-05T10:30:21.865Z,3.02
2018-07-05T10:33:01.527Z,2.60
2018-07-05T10:35:28.821Z,2.75
2018-07-05T10:37:58.385Z,2.67
2018-07-05T10:40:39.005Z,2.77
2018-07-05T10:43:18.697Z,2.30
2018-07-05T10:45:58.474Z,2.77
2018-07-05T10:48:38.187Z,2.60
2018-07-05T10:51:17.957Z,2.60
2018-07-05T10:53:51.703Z,2.67
2018-07-05T10:56:31.290Z,2.58
2018-07-05T10:59:04.763Z,2.80
2018-07-05T11:01:44.323Z,2.72
2018-07-05T11:04:23.755Z,2.65
2018-07-05T11:07:03.589Z,2.50
2018-07-05T11:09:43.049Z,3.12
2018-07-05T11:12:22.491Z,2.40
2018-07-05T11:15:01.981Z,2.65
2018-07-05T11:17:41.489Z,2.60
2018-07-05T11:20:21.896Z,2.87
2018-07-05T11:23:01.644Z,2.60
2018-07-05T11:25:41.377Z,2.62
2018-07-05T11:28:20.867Z,2.65
2018-07-05T11:31:00.371Z,2.55
2018-07-05T11:33:39.856Z,2.65
2018-07-05T11:36:19.421Z,2.40
2018-07-05T11:38:58.969Z,2.30
2018-07-05T11:41:38.549Z,2.55
2018-07-05T11:44:18.023Z,2.25
2018-07-05T11:46:57.630Z,2.85
2018-07-05T11:49:37.326Z,2.35
2018-07-05T11:52:17.064Z,2.50
2018-07-05T11:54:56.579Z,2.80
2018-07-05T11:57:36.174Z,2.70
2018-07-05T12:00:15.723Z,3.00
2018-07-05T12:02:55.295Z,2.80
2018-07-05T12:05:34.863Z,3.00
2018-07-05T12:08:14.344Z,2.95
2018-07-05T12:10:53.818Z,3.12
2018-07-05T12:13:33.331Z,2.72
2018-07-05T12:16:13.037Z,3.20
2018-07-05T12:18:52.603Z,2.72
2018-07-05T12:21:26.144Z,2.80
2018-07-05T12:24:05.737Z,2.58
2018-07-05T12:26:45.481Z,2.52
2018-07-05T12:29:25.061Z,3.05
2018-07-05T12:32:04.489Z,3.30
2018-07-05T12:34:44.045Z,2.65
2018-07-05T12:37:23.724Z,3.25
2018-07-05T12:40:03.328Z,2.87
2018-07-05T12:42:43.009Z,2.58
2018-07-05T12:45:22.597Z,2.90
2018-07-05T12:48:02.127Z,2.50
2018-07-05T12:50:41.707Z,2.60
2018-07-05T12:53:21.282Z,3.02
2018-07-05T12:55:54.848Z,3.02
2018-07-05T12:58:34.440Z,3.05
2018-07-05T13:01:14.161Z,3.00
2018-07-05T13:03:53.782Z,2.92
2018-07-05T13:06:33.476Z,3.02
2018-07-05T13:09:12.983Z,3.33
2018-07-05T13:11:52.488Z,3.58
2018-07-05T13:14:32.062Z,2.72
2018-07-05T13:17:11.540Z,3.45
2018-07-05T13:19:51.070Z,2.77
2018-07-05T13:22:30.642Z,2.87
2018-07-05T13:25:10.304Z,2.83
2018-07-05T13:27:49.841Z,2.83
2018-07-05T13:30:29.479Z,3.22
2018-07-05T13:33:09.294Z,3.02
2018-07-05T13:35:49.013Z,3.02
2018-07-05T13:38:28.822Z,3.15
2018-07-05T13:41:08.710Z,3.67
2018-07-05T13:43:42.369Z,2.80
2018-07-05T13:46:22.305Z,3.20
2018-07-05T13:49:01.819Z,3.15
2018-07-05T13:51:41.372Z,3.08
2018-07-05T13:54:20.993Z,2.75
2018-07-05T13:57:06.351Z,3.05
2018-07-05T13:59:46.146Z,3.00
2018-07-05T14:02:26.045Z,2.83
2018-07-05T14:05:05.668Z,2.87
2018-07-05T14:07:45.324Z,2.85
2018-07-05T14:10:25.112Z,2.70
2018-07-05T14:13:04.772Z,2.85
2018-07-05T14:15:44.426Z,3.08
2018-07-05T14:18:24.092Z,2.92
2018-07-05T14:21:03.546Z,3.20
2018-07-05T14:23:43.108Z,2.85
2018-07-05T14:26:22.817Z,3.05
2018-07-05T14:28:56.562Z,3.00
2018-07-05T14:31:36.194Z,2.87
2018-07-05T14:34:15.580Z,2.60
2018-07-05T14:36:49.129Z,3.10
2018-07-05T14:39:28.549Z,2.98
2018-07-05T14:42:07.992Z,2.90
2018-07-05T14:44:47.607Z,2.87
2018-07-05T14:47:27.365Z,3.25
2018-07-05T14:50:06.929Z,3.10
2018-07-05T14:52:46.618Z,2.90
2018-07-05T14:55:26.269Z,3.52
2018-07-05T14:58:05.879Z,3.20
2018-07-05T15:00:45.607Z,3.80
2018-07-05T15:03:25.239Z,3.42
2018-07-05T15:06:04.795Z,3.15
2018-07-05T15:08:44.636Z,3.00
2018-07-05T15:11:24.126Z,3.55
2018-07-05T15:14:03.657Z,3.02
2018-07-05T15:16:43.172Z,2.80
2018-07-05T15:19:22.821Z,3.70
2018-07-05T15:22:02.367Z,3.00
2018-07-05T15:24:41.865Z,3.08
2018-07-05T15:27:21.315Z,3.08
2018-07-05T15:30:00.846Z,2.95
2018-07-05T15:32:40.432Z,3.05
2018-07-05T15:35:13.902Z,3.17
2018-07-05T15:37:53.466Z,2.98
2018-07-05T15:40:27.093Z,3.20
2018-07-05T15:43:06.699Z,2.83
2018-07-05T15:45:46.354Z,3.20
2018-07-05T15:48:26.448Z,3.52
2018-07-05T15:51:09.862Z,3.10
2018-07-05T15:53:49.528Z,3.08
2018-07-05T15:56:29.144Z,3.17
2018-07-05T15:59:08.741Z,3.40
2018-07-05T16:01:49.724Z,3.27
2018-07-05T16:04:29.251Z,2.62
2018-07-05T16:07:08.834Z,3.12
2018-07-05T16:09:48.331Z,3.10
2018-07-05T16:12:27.911Z,4.22
2018-07-05T16:15:07.438Z,3.00
2018-07-05T16:17:40.922Z,2.70
2018-07-05T16:20:20.516Z,3.00
2018-07-05T16:23:00.047Z,2.83
2018-07-05T16:25:39.777Z,2.83
2018-07-05T16:28:19.349Z,2.90
2018-07-05T16:30:58.768Z,2.77
2018-07-05T16:33:38.308Z,2.80
2018-07-05T16:36:17.804Z,3.75
2018-07-05T16:38:57.339Z,3.10
2018-07-05T16:41:36.912Z,2.90
2018-07-05T16:44:16.930Z,3.15
2018-07-05T16:46:50.523Z,3.10
2018-07-05T16:49:30.266Z,2.77
2018-07-05T16:52:03.866Z,3.20
2018-07-05T16:54:43.501Z,3.42
2018-07-05T16:57:23.188Z,3.10
2018-07-05T17:00:02.757Z,3.10
2018-07-05T17:02:42.174Z,3.10
2018-07-05T17:05:21.710Z,3.05
2018-07-05T17:08:01.313Z,2.95
2018-07-05T17:10:40.881Z,3.22
2018-07-05T17:13:20.352Z,2.80
2018-07-05T17:16:00.395Z,2.98
2018-07-05T17:18:39.957Z,2.83
2018-07-05T17:21:19.361Z,3.25
2018-07-05T17:23:58.868Z,3.15
2018-07-05T17:26:38.501Z,2.98
2018-07-05T17:29:18.000Z,2.67
2018-07-05T17:31:57.480Z,2.98
2018-07-05T17:34:37.180Z,3.40
2018-07-05T17:37:16.698Z,3.05
2018-07-05T17:39:56.272Z,2.83
2018-07-05T17:42:35.998Z,2.72
2018-07-05T17:45:15.786Z,2.47
2018-07-05T17:47:55.343Z,2.80
2018-07-05T17:50:34.877Z,2.58
2018-07-05T17:53:14.492Z,2.50
2018-07-05T17:55:54.673Z,2.42
2018-07-05T17:58:28.313Z,2.30
2018-07-05T18:01:07.800Z,3.72
2018-07-05T18:03:47.349Z,3.08
2018-07-05T18:06:26.943Z,2.22
2018-07-05T18:09:06.558Z,2.50
2018-07-05T18:11:46.150Z,2.58
2018-07-05T18:14:25.804Z,2.50
2018-07-05T18:17:05.320Z,2.67
2018-07-05T18:19:44.777Z,2.30
2018-07-05T18:22:24.318Z,2.40
2018-07-05T18:25:07.327Z,2.08
2018-07-05T18:27:47.084Z,2.30
2018-07-05T18:30:26.630Z,2.30
2018-07-05T18:33:06.225Z,2.42
2018-07-05T18:35:45.647Z,2.10
2018-07-05T18:38:24.991Z,2.22
2018-07-05T18:40:58.521Z,2.35
2018-07-05T18:43:38.133Z,1.87
2018-07-05T18:46:17.758Z,1.90
2018-07-05T18:48:57.294Z,2.25
2018-07-05T18:51:36.786Z,1.85
2018-07-05T18:54:16.280Z,1.80
2018-07-05T18:56:55.970Z,2.10
2018-07-05T18:59:36.664Z,1.97
2018-07-05T19:02:16.249Z,1.77
2018-07-05T19:04:55.786Z,2.10
2018-07-05T19:07:35.315Z,2.27
2018-07-05T19:10:14.846Z,2.00
2018-07-05T19:12:54.461Z,2.10
2018-07-05T19:15:33.914Z,1.80
2018-07-05T19:18:13.386Z,1.73
2018-07-05T19:20:53.011Z,1.80
2018-07-05T19:23:32.701Z,1.80
2018-07-05T19:26:06.508Z,1.70
2018-07-05T19:28:46.115Z,2.10
2018-07-05T19:31:25.606Z,2.00
2018-07-05T19:34:05.026Z,2.43
2018-07-05T19:36:44.562Z,2.00
2018-07-05T19:39:24.261Z,1.93
2018-07-05T19:42:03.898Z,2.10
2018-07-05T19:44:44.628Z,2.13
2018-07-05T19:47:24.227Z,1.87
2018-07-05T19:50:03.847Z,1.80
2018-07-05T19:52:43.337Z,1.93
2018-07-05T19:55:23.137Z,2.20
2018-07-05T19:58:02.693Z,2.03
2018-07-05T20:00:42.236Z,1.70
2018-07-05T20:03:21.724Z,2.03
2018-07-05T20:06:01.358Z,2.10
2018-07-05T20:08:40.875Z,2.10
2018-07-05T20:11:20.505Z,1.90
2018-07-05T20:13:59.921Z,1.93
2018-07-05T20:16:40.024Z,2.10
2018-07-05T20:19:19.532Z,1.73
2018-07-05T20:21:59.008Z,2.13
2018-07-05T20:24:40.878Z,1.83
2018-07-05T20:27:20.372Z,2.17
2018-07-05T20:30:00.098Z,2.13
2018-07-05T20:32:39.674Z,2.10
2018-07-05T20:35:19.336Z,2.10
2018-07-05T20:37:58.932Z,2.20
2018-07-05T20:40:38.530Z,2.50
2018-07-05T20:43:18.021Z,2.63
2018-07-05T20:45:57.456Z,2.20
2018-07-05T20:48:36.996Z,2.17
2018-07-05T20:51:16.615Z,2.10
2018-07-05T20:53:56.077Z,2.20
2018-07-05T20:56:35.501Z,2.17
2018-07-05T20:59:15.085Z,2.20
2018-07-05T21:01:54.625Z,2.50
2018-07-05T21:04:28.134Z,1.93
2018-07-05T21:07:07.728Z,2.33
2018-07-05T21:09:47.419Z,2.53
2018-07-05T21:12:21.151Z,2.60
2018-07-05T21:15:00.798Z,2.20
2018-07-05T21:17:40.322Z,2.87
2018-07-05T21:20:19.781Z,2.30
2018-07-05T21:22:59.341Z,2.40
2018-07-05T21:25:40.367Z,2.43
2018-07-05T21:28:19.952Z,2.30
2018-07-05T21:30:59.500Z,2.20
2018-07-05T21:33:39.211Z,2.50
2018-07-05T21:36:18.829Z,2.77
2018-07-05T21:38:58.484Z,2.10
2018-07-05T21:41:38.148Z,2.40
2018-07-05T21:44:17.762Z,2.40
2018-07-05T21:46:57.370Z,2.40
2018-07-05T21:49:31.053Z,2.73
2018-07-05T21:52:10.572Z,2.43
2018-07-05T21:54:50.074Z,2.67
2018-07-05T21:57:29.670Z,2.53
2018-07-05T22:00:09.363Z,2.50
2018-07-05T22:02:48.939Z,2.63
2018-07-05T22:05:28.592Z,2.40
2018-07-05T22:08:08.224Z,2.70
2018-07-05T22:10:47.660Z,2.30
2018-07-05T22:13:28.314Z,2.30
2018-07-05T22:16:07.822Z,2.70
2018-07-05T22:18:46.972Z,2.77
2018-07-05T22:21:26.441Z,2.80
2018-07-05T22:24:11.480Z,2.50
2018-07-05T22:26:51.107Z,3.10
2018-07-05T22:29:36.188Z,2.60
2018-07-05T22:32:17.153Z,2.57
2018-07-05T22:34:56.740Z,2.30
2018-07-05T22:37:36.293Z,2.93
2018-07-05T22:40:15.751Z,2.60
2018-07-05T22:42:49.306Z,2.57
2018-07-05T22:45:28.769Z,2.50
2018-07-05T22:48:08.386Z,2.40
2018-07-05T22:50:47.963Z,2.67
2018-07-05T22:53:27.504Z,2.40
2018-07-05T22:56:07.097Z,2.67
2018-07-05T22:58:46.836Z,2.70
2018-07-05T23:01:26.646Z,2.27
2018-07-05T23:04:06.171Z,2.60
2018-07-05T23:06:45.724Z,2.10
2018-07-05T23:09:25.413Z,2.50
2018-07-05T23:12:05.032Z,2.30
2018-07-05T23:14:44.572Z,2.50
2018-07-05T23:17:24.975Z,2.77
2018-07-05T23:20:04.465Z,2.40
2018-07-05T23:22:43.917Z,2.33
2018-07-05T23:25:23.355Z,2.60
2018-07-05T23:28:03.099Z,2.40
2018-07-05T23:30:43.528Z,2.50
2018-07-05T23:33:23.141Z,2.57
2018-07-05T23:36:02.730Z,2.43
2018-07-05T23:38:42.433Z,2.43
2018-07-05T23:41:21.965Z,2.30
2018-07-05T23:44:01.524Z,2.47
2018-07-05T23:46:41.045Z,2.80
2018-07-05T23:49:20.545Z,2.47
2018-07-05T23:51:59.957Z,2.50
2018-07-05T23:54:33.486Z,2.57
2018-07-05T23:57:13.074Z,2.67
2018-07-05T23:59:52.462Z,2.40
